Time,TemperatureF,DewpointF,PressureIn,WindDirection,WindDirectionDegrees,WindSpeedMPH,WindSpeedGustMPH,Humidity,HourlyPrecipIn,Conditions,Clouds,dailyrainin,SoftwareType,DateUTC
2013-03-06 00:00:00,59.7,56.1,29.62,SW,231,3.0,24.0,88,0.08,,,0.08,meteohub,2013-03-06 05:00:00,
2013-03-06 00:05:00,59.7,56.1,29.62,WSW,248,9.0,24.0,88,0.08,,,0.00,meteohub,2013-03-06 05:05:00,
2013-03-06 00:10:00,60.1,56.5,29.61,WSW,238,8.0,24.0,88,0.08,,,0.00,meteohub,2013-03-06 05:10:00,
2013-03-06 00:15:00,60.4,56.5,29.61,West,261,3.0,20.0,87,0.08,,,0.00,meteohub,2013-03-06 05:15:00,
2013-03-06 00:20:00,60.6,56.7,29.60,South,190,17.0,20.0,87,0.08,,,0.00,meteohub,2013-03-06 05:20:00,
2013-03-06 00:25:00,61.0,56.8,29.60,SW,222,8.0,22.0,86,0.06,,,0.00,meteohub,2013-03-06 05:25:00,
2013-03-06 00:30:00,61.2,57.0,29.60,WSW,248,9.0,22.0,86,0.06,,,0.00,meteohub,2013-03-06 05:30:00,
2013-03-06 00:35:00,61.2,57.0,29.59,West,262,10.0,22.0,86,0.03,,,0.00,meteohub,2013-03-06 05:35:00,
2013-03-06 00:40:00,61.3,56.8,29.59,WSW,250,14.0,22.0,85,0.02,,,0.00,meteohub,2013-03-06 05:40:00,
2013-03-06 00:45:00,61.3,56.5,29.59,WSW,242,7.0,20.0,84,0.02,,,0.00,meteohub,2013-03-06 05:45:00,
2013-03-06 00:50:00,61.2,56.3,29.59,SW,229,6.0,23.0,84,0.01,,,0.00,meteohub,2013-03-06 05:50:00,
2013-03-06 00:55:00,61.2,56.7,29.58,WSW,245,5.0,23.0,85,0.01,,,0.00,meteohub,2013-03-06 05:55:00,
2013-03-06 01:00:00,61.2,56.7,29.58,SW,234,7.0,23.0,85,0.00,,,0.00,meteohub,2013-03-06 06:00:00,
2013-03-06 01:05:00,61.0,56.5,29.58,West,276,5.0,24.0,85,0.00,,,0.00,meteohub,2013-03-06 06:05:00,
2013-03-06 01:10:00,60.8,56.3,29.57,West,271,5.0,24.0,85,0.00,,,0.00,meteohub,2013-03-06 06:10:00,
2013-03-06 01:15:00,60.6,56.1,29.57,SW,232,6.0,24.0,85,0.00,,,0.00,meteohub,2013-03-06 06:15:00,
2013-03-06 01:20:00,60.4,55.9,29.57,WSW,257,3.0,20.0,85,0.00,,,0.00,meteohub,2013-03-06 06:20:00,
2013-03-06 01:25:00,60.3,55.8,29.57,West,269,3.0,24.0,85,0.00,,,0.00,meteohub,2013-03-06 06:25:00,
2013-03-06 01:30:00,60.1,55.9,29.57,West,260,12.0,24.0,86,0.00,,,0.00,meteohub,2013-03-06 06:30:00,
2013-03-06 01:35:00,60.1,55.6,29.56,West,264,8.0,24.0,85,0.00,,,0.00,meteohub,2013-03-06 06:35:00,
2013-03-06 01:40:00,59.9,55.4,29.56,West,269,3.0,18.0,85,0.00,,,0.00,meteohub,2013-03-06 06:40:00,
2013-03-06 01:45:00,59.7,55.2,29.56,SW,225,8.0,18.0,85,0.00,,,0.00,meteohub,2013-03-06 06:45:00,
2013-03-06 01:51:00,59.7,55.2,29.56,West,276,6.0,16.0,85,0.00,,,0.00,meteohub,2013-03-06 06:51:00,
2013-03-06 01:56:00,59.7,55.2,29.56,WSW,244,7.0,19.0,85,0.00,,,0.00,meteohub,2013-03-06 06:56:00,
2013-03-06 02:01:00,59.7,55.2,29.55,SW,235,7.0,19.0,85,0.00,,,0.00,meteohub,2013-03-06 07:01:00,
2013-03-06 02:06:00,59.5,55.0,29.55,West,261,6.0,19.0,85,0.00,,,0.00,meteohub,2013-03-06 07:06:00,
2013-03-06 02:11:00,59.4,54.9,29.55,WSW,246,0.0,18.0,85,0.00,,,0.00,meteohub,2013-03-06 07:11:00,
2013-03-06 02:16:00,59.0,54.5,29.55,West,269,2.0,18.0,85,0.00,,,0.00,meteohub,2013-03-06 07:16:00,
2013-03-06 02:21:00,58.8,54.3,29.55,WSW,248,9.0,18.0,85,0.00,,,0.00,meteohub,2013-03-06 07:21:00,
2013-03-06 02:26:00,58.6,54.5,29.54,WSW,238,7.0,16.0,86,0.00,,,0.00,meteohub,2013-03-06 07:26:00,
2013-03-06 02:31:00,58.5,54.3,29.54,WSW,238,6.0,15.0,86,0.00,,,0.00,meteohub,2013-03-06 07:31:00,
2013-03-06 02:36:00,58.3,54.5,29.54,West,261,6.0,15.0,87,0.00,,,0.00,meteohub,2013-03-06 07:36:00,
2013-03-06 02:41:00,57.9,54.1,29.54,WNW,288,5.0,13.0,87,0.00,,,0.00,meteohub,2013-03-06 07:41:00,
2013-03-06 02:46:00,57.7,54.0,29.53,WSW,244,6.0,15.0,87,0.00,,,0.00,meteohub,2013-03-06 07:46:00,
2013-03-06 02:51:00,57.7,54.0,29.53,WSW,246,7.0,15.0,87,0.00,,,0.00,meteohub,2013-03-06 07:51:00,
2013-03-06 02:56:00,57.6,53.8,29.53,WSW,250,6.0,15.0,87,0.00,,,0.00,meteohub,2013-03-06 07:56:00,
2013-03-06 03:01:00,57.4,53.6,29.53,SW,232,2.0,12.0,87,0.00,,,0.00,meteohub,2013-03-06 08:01:00,
2013-03-06 03:06:00,57.0,53.2,29.52,WSW,247,7.0,12.0,87,0.00,,,0.00,meteohub,2013-03-06 08:06:00,
2013-03-06 03:11:00,57.2,53.6,29.52,West,269,6.0,12.0,88,0.00,,,0.00,meteohub,2013-03-06 08:11:00,
2013-03-06 03:16:00,57.0,53.4,29.52,WSW,241,6.0,12.0,88,0.00,,,0.00,meteohub,2013-03-06 08:16:00,
2013-03-06 03:21:00,57.2,53.4,29.52,WSW,251,11.0,13.0,87,0.00,,,0.00,meteohub,2013-03-06 08:21:00,
2013-03-06 03:26:00,57.2,52.7,29.52,WSW,253,11.0,17.0,85,0.00,,,0.00,meteohub,2013-03-06 08:26:00,
2013-03-06 03:31:00,57.2,51.4,29.52,SW,232,11.0,20.0,81,0.00,,,0.00,meteohub,2013-03-06 08:31:00,
2013-03-06 03:36:00,56.8,50.4,29.52,WSW,245,10.0,21.0,79,0.00,,,0.00,meteohub,2013-03-06 08:36:00,
2013-03-06 03:41:00,56.8,49.6,29.52,WSW,254,14.0,21.0,77,0.00,,,0.00,meteohub,2013-03-06 08:41:00,
2013-03-06 03:46:00,56.5,47.5,29.52,WSW,256,14.0,22.0,72,0.00,,,0.00,meteohub,2013-03-06 08:46:00,
2013-03-06 03:51:00,55.9,47.1,29.53,WSW,252,16.0,27.0,72,0.00,,,0.00,meteohub,2013-03-06 08:51:00,
2013-03-06 03:56:00,55.6,46.8,29.53,SW,228,9.0,27.0,72,0.00,,,0.00,meteohub,2013-03-06 08:56:00,
2013-03-06 04:01:00,55.0,46.2,29.54,NW,309,9.0,27.0,72,0.00,,,0.00,meteohub,2013-03-06 09:01:00,
2013-03-06 04:06:00,54.7,45.9,29.54,WSW,243,21.0,23.0,72,0.00,,,0.00,meteohub,2013-03-06 09:06:00,
2013-03-06 04:11:00,54.3,45.5,29.54,WSW,250,13.0,23.0,72,0.00,,,0.00,meteohub,2013-03-06 09:11:00,
2013-03-06 04:16:00,54.0,45.1,29.54,West,263,7.0,29.0,72,0.00,,,0.00,meteohub,2013-03-06 09:16:00,
2013-03-06 04:21:00,53.8,45.0,29.54,West,262,8.0,29.0,72,0.00,,,0.00,meteohub,2013-03-06 09:21:00,
2013-03-06 04:26:00,53.4,44.2,29.54,West,269,10.0,24.0,71,0.00,,,0.00,meteohub,2013-03-06 09:26:00,
2013-03-06 04:31:00,53.1,42.8,29.55,WNW,290,9.0,24.0,68,0.00,,,0.00,meteohub,2013-03-06 09:31:00,
2013-03-06 04:36:00,52.9,42.3,29.55,West,266,4.0,25.0,67,0.00,,,0.00,meteohub,2013-03-06 09:36:00,
2013-03-06 04:41:00,52.7,42.4,29.55,WSW,242,9.0,25.0,68,0.00,,,0.00,meteohub,2013-03-06 09:41:00,
2013-03-06 04:46:00,52.5,41.9,29.55,SW,233,12.0,25.0,67,0.00,,,0.00,meteohub,2013-03-06 09:46:00,
2013-03-06 04:51:00,52.5,42.3,29.55,West,275,3.0,21.0,68,0.00,,,0.00,meteohub,2013-03-06 09:51:00,
2013-03-06 04:56:00,52.3,42.1,29.55,West,271,7.0,17.0,68,0.00,,,0.00,meteohub,2013-03-06 09:56:00,
2013-03-06 05:01:00,52.0,41.7,29.55,West,264,9.0,17.0,68,0.00,,,0.00,meteohub,2013-03-06 10:01:00,
2013-03-06 05:06:00,51.6,41.7,29.55,West,261,11.0,17.0,69,0.00,,,0.00,meteohub,2013-03-06 10:06:00,
2013-03-06 05:11:00,51.4,41.5,29.55,West,263,9.0,17.0,69,0.00,,,0.00,meteohub,2013-03-06 10:11:00,
2013-03-06 05:16:00,51.3,41.9,29.56,WSW,254,18.0,20.0,70,0.00,,,0.00,meteohub,2013-03-06 10:16:00,
2013-03-06 05:21:00,51.1,40.5,29.56,West,276,12.0,20.0,67,0.00,,,0.00,meteohub,2013-03-06 10:21:00,
2013-03-06 05:26:00,50.7,39.4,29.57,WSW,257,12.0,24.0,65,0.00,,,0.00,meteohub,2013-03-06 10:26:00,
2013-03-06 05:31:00,50.4,38.3,29.56,West,261,23.0,24.0,63,0.00,,,0.00,meteohub,2013-03-06 10:31:00,
2013-03-06 05:36:00,49.8,38.1,29.57,WSW,246,11.0,31.0,64,0.00,,,0.00,meteohub,2013-03-06 10:36:00,
2013-03-06 05:41:00,49.5,37.4,29.57,West,273,24.0,31.0,63,0.00,,,0.00,meteohub,2013-03-06 10:41:00,
2013-03-06 05:46:00,48.9,37.2,29.58,WSW,247,16.0,29.0,64,0.00,,,0.00,meteohub,2013-03-06 10:46:00,
2013-03-06 05:51:00,48.6,37.4,29.58,West,273,15.0,29.0,65,0.00,,,0.00,meteohub,2013-03-06 10:51:00,
2013-03-06 05:56:00,48.4,37.2,29.58,WSW,252,10.0,26.0,65,0.00,,,0.00,meteohub,2013-03-06 10:56:00,
2013-03-06 06:01:00,47.8,36.7,29.59,WSW,242,13.0,26.0,65,0.00,,,0.00,meteohub,2013-03-06 11:01:00,
2013-03-06 06:06:00,47.3,36.1,29.59,SW,236,15.0,23.0,65,0.00,,,0.00,meteohub,2013-03-06 11:06:00,
2013-03-06 06:11:00,46.9,35.8,29.59,West,260,15.0,23.0,65,0.00,,,0.00,meteohub,2013-03-06 11:11:00,
2013-03-06 06:16:00,46.6,35.8,29.59,SW,229,13.0,27.0,66,0.00,,,0.00,meteohub,2013-03-06 11:16:00,
2013-03-06 06:21:00,46.4,35.2,29.60,WSW,248,19.0,27.0,65,0.00,,,0.00,meteohub,2013-03-06 11:21:00,
2013-03-06 06:26:00,46.2,35.1,29.60,WSW,252,12.0,24.0,65,0.00,,,0.00,meteohub,2013-03-06 11:26:00,
2013-03-06 06:31:00,46.2,35.1,29.60,WSW,248,13.0,24.0,65,0.00,,,0.00,meteohub,2013-03-06 11:31:00,
2013-03-06 06:36:00,46.2,35.1,29.60,West,269,12.0,24.0,65,0.00,,,0.00,meteohub,2013-03-06 11:36:00,
2013-03-06 06:41:00,46.0,35.8,29.60,West,266,10.0,22.0,67,0.00,,,0.00,meteohub,2013-03-06 11:41:00,
2013-03-06 06:46:00,45.3,36.1,29.61,West,273,10.0,22.0,70,0.00,,,0.00,meteohub,2013-03-06 11:46:00,
2013-03-06 06:51:00,45.0,35.4,29.61,West,266,13.0,28.0,69,0.00,,,0.00,meteohub,2013-03-06 11:51:00,
2013-03-06 06:56:00,44.8,35.2,29.61,West,274,10.0,28.0,69,0.00,,,0.00,meteohub,2013-03-06 11:56:00,
2013-03-06 07:01:00,44.4,34.9,29.61,WSW,257,15.0,25.0,69,0.00,,,0.00,meteohub,2013-03-06 12:01:00,
2013-03-06 07:06:00,44.2,35.1,29.61,West,262,14.0,25.0,70,0.00,,,0.00,meteohub,2013-03-06 12:06:00,
2013-03-06 07:11:00,44.1,34.9,29.61,WSW,250,13.0,25.0,70,0.00,,,0.00,meteohub,2013-03-06 12:11:00,
2013-03-06 07:16:00,44.1,34.9,29.62,West,266,13.0,21.0,70,0.00,,,0.00,meteohub,2013-03-06 12:16:00,
2013-03-06 07:21:00,44.1,34.9,29.62,SW,236,9.0,21.0,70,0.00,,,0.00,meteohub,2013-03-06 12:21:00,
2013-03-06 07:26:00,44.2,34.3,29.62,West,265,9.0,24.0,68,0.00,,,0.00,meteohub,2013-03-06 12:26:00,
2013-03-06 07:31:00,44.2,34.0,29.63,West,263,18.0,24.0,67,0.00,,,0.00,meteohub,2013-03-06 12:31:00,
2013-03-06 07:36:00,44.4,33.4,29.63,West,259,7.0,24.0,65,0.00,,,0.00,meteohub,2013-03-06 12:36:00,
2013-03-06 07:41:00,44.6,33.3,29.63,West,269,12.0,24.0,64,0.00,,,0.00,meteohub,2013-03-06 12:41:00,
2013-03-06 07:46:00,44.4,33.1,29.63,WSW,252,12.0,24.0,64,0.00,,,0.00,meteohub,2013-03-06 12:46:00,
2013-03-06 07:51:00,44.4,33.4,29.63,West,278,4.0,24.0,65,0.00,,,0.00,meteohub,2013-03-06 12:51:00,
2013-03-06 07:56:00,44.4,33.4,29.63,WSW,257,12.0,19.0,65,0.00,,,0.00,meteohub,2013-03-06 12:56:00,
2013-03-06 08:01:00,44.4,33.8,29.64,West,266,5.0,19.0,66,0.00,,,0.00,meteohub,2013-03-06 13:01:00,
2013-03-06 08:06:00,44.4,34.2,29.64,West,260,4.0,16.0,67,0.00,,,0.00,meteohub,2013-03-06 13:06:00,
2013-03-06 08:11:00,44.2,35.1,29.64,WSW,257,17.0,17.0,70,0.00,,,0.00,meteohub,2013-03-06 13:11:00,
2013-03-06 08:16:00,43.9,35.1,29.65,West,269,9.0,21.0,71,0.00,,,0.00,meteohub,2013-03-06 13:16:00,
2013-03-06 08:21:00,43.2,34.3,29.65,West,276,5.0,21.0,71,0.00,,,0.00,meteohub,2013-03-06 13:21:00,
2013-03-06 08:26:00,42.1,33.1,29.65,WSW,253,10.0,21.0,70,0.00,,,0.00,meteohub,2013-03-06 13:26:00,
2013-03-06 08:31:00,41.2,33.8,29.65,SW,228,13.0,21.0,75,0.00,,,0.00,meteohub,2013-03-06 13:31:00,
2013-03-06 08:36:00,41.4,34.3,29.65,West,267,5.0,27.0,76,0.01,,,0.00,meteohub,2013-03-06 13:36:00,
2013-03-06 08:41:00,41.4,35.1,29.66,West,270,7.0,22.0,78,0.01,,,0.01,meteohub,2013-03-06 13:41:00,
2013-03-06 08:46:00,41.2,35.2,29.65,West,260,12.0,19.0,79,0.01,,,0.01,meteohub,2013-03-06 13:46:00,
2013-03-06 08:51:00,41.4,36.0,29.66,West,281,1.0,19.0,81,0.01,,,0.01,meteohub,2013-03-06 13:51:00,
2013-03-06 08:56:00,41.7,36.3,29.66,WSW,254,4.0,15.0,81,0.01,,,0.01,meteohub,2013-03-06 13:56:00,
2013-03-06 09:01:00,42.3,36.5,29.66,SSW,210,4.0,15.0,80,0.01,,,0.01,meteohub,2013-03-06 14:01:00,
2013-03-06 09:06:00,43.2,37.0,29.65,WSW,257,4.0,13.0,79,0.01,,,0.01,meteohub,2013-03-06 14:06:00,
2013-03-06 09:11:00,44.2,37.6,29.65,NW,310,7.0,16.0,77,0.01,,,0.01,meteohub,2013-03-06 14:11:00,
2013-03-06 09:16:00,44.8,36.0,29.65,WNW,289,15.0,23.0,71,0.01,,,0.01,meteohub,2013-03-06 14:16:00,
2013-03-06 09:21:00,45.3,35.8,29.65,WNW,292,4.0,23.0,69,0.01,,,0.01,meteohub,2013-03-06 14:21:00,
2013-03-06 09:26:00,45.7,35.8,29.65,West,277,4.0,23.0,68,0.01,,,0.01,meteohub,2013-03-06 14:26:00,
2013-03-06 09:31:00,45.7,35.4,29.65,North,0,3.0,18.0,67,0.01,,,0.01,meteohub,2013-03-06 14:31:00,
2013-03-06 09:36:00,45.1,35.2,29.65,West,280,6.0,17.0,68,0.00,,,0.01,meteohub,2013-03-06 14:36:00,
2013-03-06 09:41:00,45.0,34.3,29.65,WSW,255,9.0,15.0,66,0.00,,,0.01,meteohub,2013-03-06 14:41:00,
2013-03-06 09:46:00,45.0,34.0,29.66,WSW,248,9.0,15.0,65,0.00,,,0.01,meteohub,2013-03-06 14:46:00,
2013-03-06 09:51:00,44.6,32.4,29.65,West,269,13.0,23.0,62,0.00,,,0.01,meteohub,2013-03-06 14:51:00,
2013-03-06 09:56:00,45.1,30.4,29.65,NW,313,5.0,24.0,56,0.00,,,0.01,meteohub,2013-03-06 14:56:00,
2013-03-06 10:01:00,46.4,30.7,29.66,WSW,252,15.0,24.0,54,0.00,,,0.01,meteohub,2013-03-06 15:01:00,
2013-03-06 10:06:00,46.8,29.7,29.66,WSW,242,9.0,24.0,51,0.00,,,0.01,meteohub,2013-03-06 15:06:00,
2013-03-06 10:12:00,46.2,28.0,29.66,West,271,4.0,30.0,49,0.00,,,0.01,meteohub,2013-03-06 15:12:00,
2013-03-06 10:17:00,46.4,27.3,29.66,WSW,250,13.0,30.0,47,0.00,,,0.01,meteohub,2013-03-06 15:17:00,
2013-03-06 10:22:00,46.8,29.1,29.66,West,275,20.0,30.0,50,0.00,,,0.01,meteohub,2013-03-06 15:22:00,
2013-03-06 10:27:00,46.6,27.9,29.66,WSW,253,10.0,25.0,48,0.00,,,0.01,meteohub,2013-03-06 15:27:00,
2013-03-06 10:32:00,47.1,28.9,29.66,West,280,7.0,22.0,49,0.00,,,0.01,meteohub,2013-03-06 15:32:00,
2013-03-06 10:37:00,47.7,28.9,29.66,NW,317,9.0,24.0,48,0.00,,,0.01,meteohub,2013-03-06 15:37:00,
2013-03-06 10:42:00,46.9,27.7,29.66,WSW,257,13.0,24.0,47,0.00,,,0.01,meteohub,2013-03-06 15:42:00,
2013-03-06 10:47:00,46.2,27.1,29.66,WNW,293,18.0,25.0,47,0.00,,,0.01,meteohub,2013-03-06 15:47:00,
2013-03-06 10:52:00,46.2,27.1,29.66,West,268,11.0,25.0,47,0.00,,,0.01,meteohub,2013-03-06 15:52:00,
2013-03-06 10:57:00,46.9,26.8,29.66,West,263,16.0,26.0,45,0.00,,,0.01,meteohub,2013-03-06 15:57:00,
2013-03-06 11:02:00,47.1,26.8,29.66,West,269,12.0,29.0,45,0.00,,,0.01,meteohub,2013-03-06 16:02:00,
2013-03-06 11:07:00,46.8,26.6,29.66,West,264,11.0,29.0,45,0.00,,,0.01,meteohub,2013-03-06 16:07:00,
2013-03-06 11:12:00,47.8,28.0,29.67,WNW,287,21.0,29.0,46,0.00,,,0.01,meteohub,2013-03-06 16:12:00,
2013-03-06 11:17:00,47.7,27.9,29.67,WNW,290,15.0,27.0,46,0.00,,,0.01,meteohub,2013-03-06 16:17:00,
2013-03-06 11:22:00,47.8,27.5,29.67,West,259,17.0,27.0,45,0.00,,,0.01,meteohub,2013-03-06 16:22:00,
2013-03-06 11:27:00,48.0,26.6,29.67,West,259,15.0,27.0,43,0.00,,,0.01,meteohub,2013-03-06 16:27:00,
2013-03-06 11:32:00,48.4,27.5,29.67,West,274,12.0,32.0,44,0.00,,,0.01,meteohub,2013-03-06 16:32:00,
2013-03-06 11:37:00,48.4,28.0,29.67,West,259,15.0,32.0,45,0.00,,,0.01,meteohub,2013-03-06 16:37:00,
2013-03-06 11:42:00,47.8,26.4,29.67,WSW,258,23.0,32.0,43,0.00,,,0.01,meteohub,2013-03-06 16:42:00,
2013-03-06 11:47:00,47.7,26.2,29.67,West,259,19.0,31.0,43,0.00,,,0.01,meteohub,2013-03-06 16:47:00,
2013-03-06 11:52:00,48.4,27.0,29.67,WSW,253,14.0,31.0,43,0.00,,,0.01,meteohub,2013-03-06 16:52:00,
2013-03-06 11:57:00,48.6,28.8,29.67,West,273,7.0,31.0,46,0.00,,,0.01,meteohub,2013-03-06 16:57:00,
2013-03-06 12:02:00,48.4,27.0,29.67,WSW,257,7.0,25.0,43,0.00,,,0.01,meteohub,2013-03-06 17:02:00,
2013-03-06 12:07:00,48.0,27.1,29.67,WSW,254,18.0,25.0,44,0.00,,,0.01,meteohub,2013-03-06 17:07:00,
2013-03-06 12:12:00,48.4,28.0,29.67,West,277,10.0,24.0,45,0.00,,,0.01,meteohub,2013-03-06 17:12:00,
2013-03-06 12:17:00,47.8,27.5,29.67,West,276,10.0,24.0,45,0.00,,,0.01,meteohub,2013-03-06 17:17:00,
2013-03-06 12:22:00,48.0,27.1,29.67,West,265,7.0,25.0,44,0.00,,,0.01,meteohub,2013-03-06 17:22:00,
2013-03-06 12:27:00,47.8,27.0,29.67,West,269,8.0,25.0,44,0.00,,,0.01,meteohub,2013-03-06 17:27:00,
2013-03-06 12:32:00,48.4,28.6,29.67,West,273,14.0,25.0,46,0.00,,,0.01,meteohub,2013-03-06 17:32:00,
2013-03-06 12:37:00,48.4,27.5,29.67,West,261,15.0,25.0,44,0.00,,,0.01,meteohub,2013-03-06 17:37:00,
2013-03-06 12:42:00,48.9,28.0,29.67,WNW,288,13.0,27.0,44,0.00,,,0.01,meteohub,2013-03-06 17:42:00,
2013-03-06 12:47:00,48.4,27.5,29.67,WSW,257,16.0,27.0,44,0.00,,,0.01,meteohub,2013-03-06 17:47:00,
2013-03-06 12:52:00,48.9,28.0,29.66,WSW,252,18.0,27.0,44,0.00,,,0.01,meteohub,2013-03-06 17:52:00,
2013-03-06 12:57:00,49.6,28.6,29.66,West,259,9.0,25.0,44,0.00,,,0.01,meteohub,2013-03-06 17:57:00,
2013-03-06 13:02:00,49.5,28.4,29.66,West,275,26.0,26.0,44,0.00,,,0.01,meteohub,2013-03-06 18:02:00,
2013-03-06 13:07:00,49.1,28.0,29.66,West,261,17.0,27.0,44,0.00,,,0.01,meteohub,2013-03-06 18:07:00,
2013-03-06 13:12:00,49.3,28.2,29.66,West,262,17.0,27.0,44,0.00,,,0.01,meteohub,2013-03-06 18:12:00,
2013-03-06 13:17:00,48.7,27.9,29.66,WNW,286,13.0,27.0,44,0.00,,,0.01,meteohub,2013-03-06 18:17:00,
2013-03-06 13:22:00,49.3,28.2,29.65,West,275,16.0,28.0,44,0.00,,,0.01,meteohub,2013-03-06 18:22:00,
2013-03-06 13:27:00,48.7,28.4,29.65,West,262,12.0,28.0,45,0.00,,,0.01,meteohub,2013-03-06 18:27:00,
2013-03-06 13:32:00,49.1,28.8,29.65,West,265,8.0,28.0,45,0.00,,,0.01,meteohub,2013-03-06 18:32:00,
2013-03-06 13:37:00,49.8,28.8,29.65,WSW,253,15.0,27.0,44,0.00,,,0.01,meteohub,2013-03-06 18:37:00,
2013-03-06 13:42:00,49.8,29.8,29.65,West,261,15.0,25.0,46,0.00,,,0.01,meteohub,2013-03-06 18:42:00,
2013-03-06 13:47:00,50.5,28.9,29.65,West,281,19.0,25.0,43,0.00,,,0.01,meteohub,2013-03-06 18:47:00,
2013-03-06 13:52:00,50.0,28.9,29.65,WSW,251,17.0,30.0,44,0.00,,,0.01,meteohub,2013-03-06 18:52:00,
2013-03-06 13:57:00,49.1,28.8,29.65,West,273,11.0,30.0,45,0.00,,,0.01,meteohub,2013-03-06 18:57:00,
2013-03-06 14:02:00,49.3,28.8,29.65,NNW,331,2.0,30.0,45,0.00,,,0.01,meteohub,2013-03-06 19:02:00,
2013-03-06 14:07:00,49.6,29.1,29.65,West,263,7.0,28.0,45,0.00,,,0.01,meteohub,2013-03-06 19:07:00,
2013-03-06 14:12:00,50.5,28.9,29.65,WSW,245,14.0,26.0,43,0.00,,,0.01,meteohub,2013-03-06 19:12:00,
2013-03-06 14:17:00,50.5,28.9,29.65,West,270,15.0,33.0,43,0.00,,,0.01,meteohub,2013-03-06 19:17:00,
2013-03-06 14:22:00,50.2,28.6,29.65,NNW,331,11.0,33.0,43,0.00,,,0.01,meteohub,2013-03-06 19:22:00,
2013-03-06 14:27:00,49.8,28.8,29.65,West,265,15.0,33.0,44,0.00,,,0.01,meteohub,2013-03-06 19:27:00,
2013-03-06 14:32:00,50.0,28.4,29.65,West,269,12.0,32.0,43,0.00,,,0.01,meteohub,2013-03-06 19:32:00,
2013-03-06 14:37:00,50.2,28.6,29.66,West,270,13.0,32.0,43,0.00,,,0.01,meteohub,2013-03-06 19:37:00,
2013-03-06 14:42:00,49.8,28.8,29.66,West,267,12.0,30.0,44,0.00,,,0.01,meteohub,2013-03-06 19:42:00,
2013-03-06 14:47:00,51.3,30.0,29.66,West,262,3.0,30.0,44,0.00,,,0.01,meteohub,2013-03-06 19:47:00,
2013-03-06 14:52:00,50.5,28.2,29.67,West,272,16.0,30.0,42,0.00,,,0.01,meteohub,2013-03-06 19:52:00,
2013-03-06 14:57:00,49.8,29.3,29.67,West,261,1.0,24.0,45,0.00,,,0.01,meteohub,2013-03-06 19:57:00,
2013-03-06 15:02:00,49.5,28.4,29.67,West,272,12.0,24.0,44,0.00,,,0.01,meteohub,2013-03-06 20:02:00,
2013-03-06 15:07:00,50.7,30.2,29.67,WNW,294,6.0,24.0,45,0.00,,,0.01,meteohub,2013-03-06 20:07:00,
2013-03-06 15:12:00,51.4,29.7,29.67,West,263,5.0,24.0,43,0.00,,,0.01,meteohub,2013-03-06 20:12:00,
2013-03-06 15:17:00,51.3,29.5,29.67,West,265,20.0,28.0,43,0.00,,,0.01,meteohub,2013-03-06 20:17:00,
2013-03-06 15:22:00,50.7,29.1,29.67,WSW,257,15.0,28.0,43,0.00,,,0.01,meteohub,2013-03-06 20:22:00,
2013-03-06 15:27:00,51.8,29.5,29.67,WSW,246,11.0,28.0,42,0.00,,,0.01,meteohub,2013-03-06 20:27:00,
2013-03-06 15:32:00,52.2,29.1,29.67,WNW,288,16.0,27.0,41,0.00,,,0.01,meteohub,2013-03-06 20:32:00,
2013-03-06 15:37:00,52.0,28.9,29.67,West,261,17.0,27.0,41,0.00,,,0.01,meteohub,2013-03-06 20:37:00,
2013-03-06 15:42:00,51.3,28.4,29.67,WNW,292,10.0,27.0,41,0.00,,,0.01,meteohub,2013-03-06 20:42:00,
2013-03-06 15:47:00,51.3,28.9,29.67,West,268,15.0,25.0,42,0.00,,,0.01,meteohub,2013-03-06 20:47:00,
2013-03-06 15:52:00,50.9,28.6,29.68,West,277,11.0,29.0,42,0.00,,,0.01,meteohub,2013-03-06 20:52:00,
2013-03-06 15:57:00,50.9,28.6,29.68,WSW,258,12.0,29.0,42,0.00,,,0.01,meteohub,2013-03-06 20:57:00,
2013-03-06 16:02:00,51.4,29.7,29.68,WNW,292,9.0,29.0,43,0.00,,,0.01,meteohub,2013-03-06 21:02:00,
2013-03-06 16:07:00,50.9,29.1,29.69,West,273,12.0,29.0,43,0.00,,,0.01,meteohub,2013-03-06 21:07:00,
2013-03-06 16:12:00,50.7,29.1,29.69,West,277,9.0,29.0,43,0.00,,,0.01,meteohub,2013-03-06 21:12:00,
2013-03-06 16:17:00,50.5,28.9,29.69,West,268,7.0,29.0,43,0.00,,,0.01,meteohub,2013-03-06 21:17:00,
2013-03-06 16:22:00,50.4,28.8,29.69,WSW,250,18.0,29.0,43,0.00,,,0.01,meteohub,2013-03-06 21:22:00,
2013-03-06 16:27:00,50.4,29.3,29.70,WSW,246,19.0,22.0,44,0.00,,,0.01,meteohub,2013-03-06 21:27:00,
2013-03-06 16:32:00,50.2,29.7,29.70,West,263,7.0,32.0,45,0.00,,,0.01,meteohub,2013-03-06 21:32:00,
2013-03-06 16:37:00,50.2,29.7,29.71,WSW,244,11.0,32.0,45,0.00,,,0.01,meteohub,2013-03-06 21:37:00,
2013-03-06 16:42:00,50.2,29.7,29.71,WNW,282,17.0,32.0,45,0.00,,,0.01,meteohub,2013-03-06 21:42:00,
2013-03-06 16:47:00,49.8,29.8,29.72,NW,306,7.0,23.0,46,0.00,,,0.01,meteohub,2013-03-06 21:47:00,
2013-03-06 16:52:00,49.8,29.3,29.73,WNW,284,9.0,23.0,45,0.00,,,0.01,meteohub,2013-03-06 21:52:00,
2013-03-06 16:57:00,49.6,29.7,29.73,WNW,296,13.0,24.0,46,0.00,,,0.01,meteohub,2013-03-06 21:57:00,
2013-03-06 17:02:00,49.6,29.1,29.73,West,266,9.0,27.0,45,0.00,,,0.01,meteohub,2013-03-06 22:02:00,
2013-03-06 17:07:00,49.5,29.5,29.74,West,265,6.0,27.0,46,0.00,,,0.01,meteohub,2013-03-06 22:07:00,
2013-03-06 17:12:00,49.5,30.0,29.74,WSW,258,12.0,27.0,47,0.00,,,0.01,meteohub,2013-03-06 22:12:00,
2013-03-06 17:17:00,49.5,30.6,29.75,West,279,16.0,26.0,48,0.00,,,0.01,meteohub,2013-03-06 22:17:00,
2013-03-06 17:22:00,49.5,30.0,29.75,West,268,8.0,24.0,47,0.00,,,0.01,meteohub,2013-03-06 22:22:00,
2013-03-06 17:27:00,49.3,30.4,29.75,WNW,302,4.0,24.0,48,0.00,,,0.01,meteohub,2013-03-06 22:27:00,
2013-03-06 17:32:00,49.3,31.5,29.76,West,275,9.0,21.0,50,0.00,,,0.01,meteohub,2013-03-06 22:32:00,
2013-03-06 17:37:00,49.1,30.7,29.76,WSW,250,10.0,19.0,49,0.00,,,0.01,meteohub,2013-03-06 22:37:00,
2013-03-06 17:42:00,49.3,30.4,29.76,South,190,18.0,18.0,48,0.00,,,0.01,meteohub,2013-03-06 22:42:00,
2013-03-06 17:47:00,49.1,30.7,29.76,WSW,246,7.0,18.0,49,0.00,,,0.01,meteohub,2013-03-06 22:47:00,
2013-03-06 17:52:00,49.1,31.3,29.77,West,275,12.0,26.0,50,0.00,,,0.01,meteohub,2013-03-06 22:52:00,
2013-03-06 17:57:00,49.1,30.7,29.77,West,279,11.0,26.0,49,0.00,,,0.01,meteohub,2013-03-06 22:57:00,
2013-03-06 18:02:00,48.9,31.1,29.78,WSW,254,1.0,26.0,50,0.00,,,0.01,meteohub,2013-03-06 23:02:00,
2013-03-06 18:07:00,48.7,30.9,29.78,West,279,0.0,26.0,50,0.00,,,0.01,meteohub,2013-03-06 23:07:00,
2013-03-06 18:12:00,48.7,31.5,29.79,WNW,283,0.0,19.0,51,0.00,,,0.01,meteohub,2013-03-06 23:12:00,
2013-03-06 18:17:00,48.6,30.7,29.79,West,278,6.0,19.0,50,0.00,,,0.01,meteohub,2013-03-06 23:17:00,
2013-03-06 18:22:00,48.6,30.7,29.79,WNW,292,8.0,18.0,50,0.00,,,0.01,meteohub,2013-03-06 23:22:00,
2013-03-06 18:27:00,48.6,31.3,29.80,WSW,238,3.0,19.0,51,0.00,,,0.01,meteohub,2013-03-06 23:27:00,
2013-03-06 18:32:00,48.4,31.6,29.80,WNW,302,0.0,19.0,52,0.00,,,0.01,meteohub,2013-03-06 23:32:00,
2013-03-06 18:37:00,48.4,31.6,29.81,WNW,297,10.0,25.0,52,0.00,,,0.01,meteohub,2013-03-06 23:37:00,
2013-03-06 18:42:00,48.4,31.6,29.81,West,268,3.0,25.0,52,0.00,,,0.01,meteohub,2013-03-06 23:42:00,
2013-03-06 18:47:00,48.4,31.6,29.81,West,265,13.0,25.0,52,0.00,,,0.01,meteohub,2013-03-06 23:47:00,
2013-03-06 18:52:00,48.4,32.0,29.82,West,272,5.0,22.0,53,0.00,,,0.01,meteohub,2013-03-06 23:52:00,
2013-03-06 18:57:00,48.4,31.6,29.82,West,281,8.0,22.0,52,0.00,,,0.01,meteohub,2013-03-06 23:57:00,
2013-03-06 19:02:00,48.4,32.0,29.82,West,268,7.0,22.0,53,0.00,,,0.01,meteohub,2013-03-07 00:02:00,
2013-03-06 19:07:00,48.4,32.0,29.83,West,270,9.0,22.0,53,0.00,,,0.01,meteohub,2013-03-07 00:07:00,
2013-03-06 19:12:00,48.4,32.5,29.83,West,271,2.0,22.0,54,0.00,,,0.01,meteohub,2013-03-07 00:12:00,
2013-03-06 19:17:00,48.4,32.5,29.84,NW,316,12.0,22.0,54,0.00,,,0.01,meteohub,2013-03-07 00:17:00,
2013-03-06 19:22:00,48.0,33.1,29.84,WNW,296,0.0,22.0,56,0.00,,,0.01,meteohub,2013-03-07 00:22:00,
2013-03-06 19:27:00,48.0,34.0,29.84,West,270,1.0,19.0,58,0.00,,,0.01,meteohub,2013-03-07 00:27:00,
2013-03-06 19:32:00,47.8,34.2,29.85,WNW,296,3.0,19.0,59,0.00,,,0.01,meteohub,2013-03-07 00:32:00,
2013-03-06 19:37:00,48.0,34.3,29.86,West,265,9.0,20.0,59,0.00,,,0.01,meteohub,2013-03-07 00:37:00,
2013-03-06 19:42:00,47.8,34.7,29.86,WNW,288,6.0,20.0,60,0.00,,,0.01,meteohub,2013-03-07 00:42:00,
2013-03-06 19:47:00,47.8,34.7,29.86,WSW,254,12.0,20.0,60,0.00,,,0.01,meteohub,2013-03-07 00:47:00,
2013-03-06 19:52:00,47.7,34.9,29.86,West,268,7.0,24.0,61,0.00,,,0.01,meteohub,2013-03-07 00:52:00,
2013-03-06 19:57:00,47.7,34.9,29.86,NW,315,2.0,24.0,61,0.00,,,0.01,meteohub,2013-03-07 00:57:00,
2013-03-06 20:02:00,47.7,35.2,29.86,WNW,287,7.0,24.0,62,0.00,,,0.01,meteohub,2013-03-07 01:02:00,
2013-03-06 20:07:00,47.7,34.9,29.87,WNW,282,3.0,16.0,61,0.00,,,0.01,meteohub,2013-03-07 01:07:00,
2013-03-06 20:12:00,47.7,35.2,29.87,WNW,294,8.0,17.0,62,0.00,,,0.01,meteohub,2013-03-07 01:12:00,
2013-03-06 20:17:00,47.7,35.2,29.87,NW,315,10.0,17.0,62,0.00,,,0.01,meteohub,2013-03-07 01:17:00,
2013-03-06 20:22:00,47.5,35.6,29.88,WNW,285,0.0,17.0,63,0.00,,,0.01,meteohub,2013-03-07 01:22:00,
2013-03-06 20:27:00,47.1,35.6,29.88,WSW,250,17.0,17.0,64,0.00,,,0.01,meteohub,2013-03-07 01:27:00,
2013-03-06 20:32:00,47.1,35.6,29.88,West,264,5.0,17.0,64,0.00,,,0.01,meteohub,2013-03-07 01:32:00,
2013-03-06 20:37:00,47.1,36.0,29.88,SW,231,6.0,17.0,65,0.00,,,0.01,meteohub,2013-03-07 01:37:00,
2013-03-06 20:42:00,46.9,35.8,29.89,West,268,9.0,17.0,65,0.00,,,0.01,meteohub,2013-03-07 01:42:00,
2013-03-06 20:47:00,46.8,35.6,29.90,NW,321,1.0,18.0,65,0.00,,,0.01,meteohub,2013-03-07 01:47:00,
2013-03-06 20:52:00,46.6,35.8,29.90,NW,304,3.0,18.0,66,0.00,,,0.01,meteohub,2013-03-07 01:52:00,
2013-03-06 20:57:00,46.2,35.4,29.89,West,260,15.0,18.0,66,0.00,,,0.01,meteohub,2013-03-07 01:57:00,
2013-03-06 21:02:00,46.0,35.8,29.89,WNW,290,1.0,15.0,67,0.00,,,0.01,meteohub,2013-03-07 02:02:00,
2013-03-06 21:07:00,46.0,35.8,29.89,NNW,329,4.0,15.0,67,0.00,,,0.01,meteohub,2013-03-07 02:07:00,
2013-03-06 21:12:00,46.0,35.8,29.90,WNW,292,8.0,15.0,67,0.00,,,0.01,meteohub,2013-03-07 02:12:00,
2013-03-06 21:17:00,46.2,36.0,29.90,NW,314,0.0,15.0,67,0.00,,,0.01,meteohub,2013-03-07 02:17:00,
2013-03-06 21:22:00,46.2,36.0,29.91,West,278,4.0,15.0,67,0.00,,,0.01,meteohub,2013-03-07 02:22:00,
2013-03-06 21:27:00,46.4,36.0,29.91,WNW,300,0.0,19.0,67,0.00,,,0.01,meteohub,2013-03-07 02:27:00,
2013-03-06 21:33:00,46.4,36.0,29.91,NNW,336,4.0,19.0,67,0.00,,,0.01,meteohub,2013-03-07 02:33:00,
2013-03-06 21:38:00,46.2,36.3,29.92,West,271,0.0,19.0,68,0.00,,,0.01,meteohub,2013-03-07 02:38:00,
2013-03-06 21:43:00,46.2,36.0,29.92,West,277,2.0,11.0,67,0.00,,,0.01,meteohub,2013-03-07 02:43:00,
2013-03-06 21:48:00,46.2,36.3,29.92,WSW,257,0.0,8.0,68,0.00,,,0.01,meteohub,2013-03-07 02:48:00,
2013-03-06 21:53:00,46.2,36.3,29.93,WNW,285,1.0,10.0,68,0.00,,,0.01,meteohub,2013-03-07 02:53:00,
2013-03-06 21:58:00,46.0,36.1,29.93,West,270,2.0,10.0,68,0.00,,,0.01,meteohub,2013-03-07 02:58:00,
2013-03-06 22:02:00,46.0,36.5,29.93,WNW,293,1.0,10.0,69,0.00,,,0.01,meteohub,2013-03-07 03:02:00,
2013-03-06 22:07:00,45.9,36.3,29.93,WNW,292,0.0,10.0,69,0.00,,,0.01,meteohub,2013-03-07 03:07:00,
2013-03-06 22:13:00,45.9,36.3,29.93,NW,323,3.0,8.0,69,0.00,,,0.01,meteohub,2013-03-07 03:13:00,
2013-03-06 22:18:00,45.7,36.1,29.93,WNW,293,5.0,8.0,69,0.00,,,0.01,meteohub,2013-03-07 03:18:00,
2013-03-06 22:23:00,45.5,36.3,29.94,West,266,0.0,8.0,70,0.00,,,0.01,meteohub,2013-03-07 03:23:00,
2013-03-06 22:28:00,45.3,36.5,29.94,WNW,283,0.0,8.0,71,0.00,,,0.01,meteohub,2013-03-07 03:28:00,
2013-03-06 22:33:00,45.0,36.1,29.94,West,273,0.0,6.0,71,0.00,,,0.01,meteohub,2013-03-07 03:33:00,
2013-03-06 22:38:00,44.8,36.3,29.94,West,260,0.0,13.0,72,0.00,,,0.01,meteohub,2013-03-07 03:38:00,
2013-03-06 22:43:00,44.6,35.8,29.94,West,261,3.0,13.0,71,0.00,,,0.01,meteohub,2013-03-07 03:43:00,
2013-03-06 22:48:00,44.4,35.2,29.94,West,268,2.0,13.0,70,0.00,,,0.01,meteohub,2013-03-07 03:48:00,
2013-03-06 22:53:00,44.4,35.6,29.94,WSW,244,4.0,14.0,71,0.00,,,0.01,meteohub,2013-03-07 03:53:00,
2013-03-06 22:58:00,44.2,35.1,29.94,WNW,290,3.0,14.0,70,0.00,,,0.01,meteohub,2013-03-07 03:58:00,
2013-03-06 23:03:00,44.2,35.1,29.94,West,260,2.0,14.0,70,0.00,,,0.01,meteohub,2013-03-07 04:03:00,
2013-03-06 23:08:00,44.2,34.7,29.94,NW,309,3.0,14.0,69,0.00,,,0.01,meteohub,2013-03-07 04:08:00,
2013-03-06 23:13:00,44.1,34.9,29.95,NW,317,6.0,14.0,70,0.00,,,0.01,meteohub,2013-03-07 04:13:00,
2013-03-06 23:18:00,44.1,34.9,29.95,West,264,4.0,13.0,70,0.00,,,0.01,meteohub,2013-03-07 04:18:00,
2013-03-06 23:23:00,44.1,34.5,29.96,WNW,300,11.0,11.0,69,0.00,,,0.01,meteohub,2013-03-07 04:23:00,
2013-03-06 23:28:00,44.2,34.7,29.96,NNW,329,0.0,14.0,69,0.00,,,0.01,meteohub,2013-03-07 04:28:00,
2013-03-06 23:33:00,44.1,34.5,29.96,WNW,287,0.0,14.0,69,0.00,,,0.01,meteohub,2013-03-07 04:33:00,
2013-03-06 23:38:00,44.1,34.5,29.95,West,268,0.0,14.0,69,0.00,,,0.01,meteohub,2013-03-07 04:38:00,
2013-03-06 23:43:00,43.7,34.2,29.95,West,268,1.0,10.0,69,0.00,,,0.01,meteohub,2013-03-07 04:43:00,
2013-03-06 23:48:00,43.5,34.0,29.95,WSW,242,0.0,12.0,69,0.00,,,0.01,meteohub,2013-03-07 04:48:00,
2013-03-06 23:53:00,43.2,33.6,29.95,WNW,287,7.0,12.0,69,0.00,,,0.01,meteohub,2013-03-07 04:53:00,
2013-03-06 23:58:00,43.2,33.6,29.95,West,265,3.0,12.0,69,0.00,,,0.01,meteohub,2013-03-07 04:58:00,